createdAt,value
2019-03-04T00:01:58.247Z,99354.80
2019-03-04T00:04:33.330Z,99343.20
2019-03-04T00:07:08.099Z,99340.50
2019-03-04T00:09:42.991Z,99336.63
2019-03-04T00:12:17.886Z,99345.04
2019-03-04T00:14:55.196Z,99363.25
2019-03-04T00:17:30.734Z,99353.63
2019-03-04T00:20:06.255Z,99342.34
2019-03-04T00:22:44.688Z,99335.97
2019-03-04T00:25:19.570Z,99329.27
2019-03-04T00:27:54.460Z,99332.13
2019-03-04T00:30:29.371Z,99337.44
2019-03-04T00:33:04.812Z,99327.20
2019-03-04T00:35:39.852Z,99329.00
2019-03-04T00:38:18.010Z,99335.14
2019-03-04T00:40:52.925Z,99329.41
2019-03-04T00:43:28.193Z,99317.56
2019-03-04T00:46:03.166Z,99328.02
2019-03-04T00:48:38.119Z,99322.31
2019-03-04T00:51:13.011Z,99335.73
2019-03-04T00:53:47.872Z,99333.41
2019-03-04T00:56:22.866Z,99319.36
2019-03-04T00:58:57.810Z,99310.30
2019-03-04T01:01:32.804Z,99306.78
2019-03-04T01:04:30.424Z,99298.84
2019-03-04T01:07:19.563Z,99289.75
2019-03-04T01:09:54.406Z,99288.95
2019-03-04T01:12:29.316Z,99269.59
2019-03-04T01:15:04.278Z,99271.09
2019-03-04T01:17:39.163Z,99264.15
2019-03-04T01:20:16.130Z,99259.25
2019-03-04T01:22:51.096Z,99251.42
2019-03-04T01:25:25.840Z,99246.39
2019-03-04T01:28:00.740Z,99225.64
2019-03-04T01:30:35.608Z,99210.02
2019-03-04T01:33:10.386Z,99203.75
2019-03-04T01:35:45.163Z,99204.18
2019-03-04T01:38:20.078Z,99206.78
2019-03-04T01:40:54.914Z,99195.15
2019-03-04T01:43:29.813Z,99189.14
2019-03-04T01:46:05.688Z,99172.99
2019-03-04T01:48:43.550Z,99177.52
2019-03-04T01:51:18.510Z,99173.93
2019-03-04T01:53:53.487Z,99176.34
2019-03-04T01:56:28.361Z,99174.64
2019-03-04T01:59:03.286Z,99171.19
2019-03-04T02:01:38.131Z,99148.23
2019-03-04T02:04:13.039Z,99137.06
2019-03-04T02:06:47.899Z,99129.57
2019-03-04T02:09:24.014Z,99124.63
2019-03-04T02:11:58.892Z,99108.87
2019-03-04T02:14:33.773Z,99118.26
2019-03-04T02:17:08.535Z,99111.61
2019-03-04T02:19:43.521Z,99094.40
2019-03-04T02:22:18.381Z,99092.86
2019-03-04T02:24:53.277Z,99089.20
2019-03-04T02:27:43.819Z,99079.81
2019-03-04T02:30:15.849Z,99067.91
2019-03-04T02:32:50.706Z,99055.77
2019-03-04T02:35:29.009Z,99038.30
2019-03-04T02:38:03.849Z,99038.07
2019-03-04T02:40:38.637Z,99028.13
2019-03-04T02:43:13.575Z,99030.58
2019-03-04T02:45:48.480Z,99019.75
2019-03-04T02:48:23.339Z,99023.59
2019-03-04T02:50:58.267Z,99003.41
2019-03-04T02:53:33.235Z,98989.80
2019-03-04T02:56:08.188Z,98985.30
2019-03-04T02:58:43.068Z,98985.30
2019-03-04T03:01:18.924Z,98984.58
2019-03-04T03:03:53.804Z,98976.69
2019-03-04T03:06:33.495Z,98972.36
2019-03-04T03:09:12.114Z,98965.33
2019-03-04T03:11:50.784Z,98979.21
2019-03-04T03:14:26.554Z,98965.93
2019-03-04T03:17:01.411Z,98944.88
2019-03-04T03:19:36.270Z,98942.23
2019-03-04T03:22:11.134Z,98936.67
2019-03-04T03:24:47.005Z,98934.80
2019-03-04T03:27:21.861Z,98920.51
2019-03-04T03:29:56.622Z,98915.14
2019-03-04T03:32:31.467Z,98902.58
2019-03-04T03:35:08.501Z,98905.38
2019-03-04T03:37:44.903Z,98874.82
2019-03-04T03:40:19.809Z,98879.06
2019-03-04T03:42:54.727Z,98889.05
2019-03-04T03:45:29.505Z,98873.75
2019-03-04T03:48:04.689Z,98879.00
2019-03-04T03:50:39.482Z,98870.19
2019-03-04T03:53:14.331Z,98855.89
2019-03-04T03:55:49.153Z,98843.22
2019-03-04T03:58:25.172Z,98816.52
2019-03-04T04:01:00.326Z,98828.97
2019-03-04T04:03:35.244Z,98837.51
2019-03-04T04:06:10.279Z,98812.33
2019-03-04T04:08:45.042Z,98812.25
2019-03-04T04:11:37.385Z,98805.02
2019-03-04T04:14:12.246Z,98797.71
2019-03-04T04:16:47.133Z,98805.01
2019-03-04T04:19:25.253Z,98801.24
2019-03-04T04:22:00.126Z,98794.16
2019-03-04T04:24:35.846Z,98791.02
2019-03-04T04:27:10.754Z,98780.16
2019-03-04T04:29:45.897Z,98774.05
2019-03-04T04:32:20.790Z,98751.36
2019-03-04T04:34:55.592Z,98735.41
2019-03-04T04:37:30.633Z,98726.39
2019-03-04T04:40:05.701Z,98718.08
2019-03-04T04:42:40.524Z,98701.75
2019-03-04T04:45:15.405Z,98691.13
2019-03-04T04:47:50.356Z,98695.31
2019-03-04T04:50:25.549Z,98668.22
2019-03-04T04:53:07.229Z,98656.09
2019-03-04T04:55:42.069Z,98660.20
2019-03-04T04:58:16.887Z,98646.54
2019-03-04T05:00:51.763Z,98639.86
2019-03-04T05:03:26.657Z,98626.78
2019-03-04T05:06:07.691Z,98628.11
2019-03-04T05:08:44.087Z,98607.30
2019-03-04T05:11:18.855Z,98602.25
2019-03-04T05:13:53.768Z,98594.91
2019-03-04T05:16:29.933Z,98581.29
2019-03-04T05:19:04.708Z,98571.53
2019-03-04T05:21:39.608Z,98561.95
2019-03-04T05:24:14.489Z,98564.73
2019-03-04T05:26:49.361Z,98549.72
2019-03-04T05:29:24.779Z,98550.59
2019-03-04T05:31:59.681Z,98544.86
2019-03-04T05:34:34.597Z,98546.16
2019-03-04T05:37:09.489Z,98543.92
2019-03-04T05:39:44.339Z,98542.30
2019-03-04T05:42:19.224Z,98544.93
2019-03-04T05:44:54.125Z,98538.44
2019-03-04T05:47:29.009Z,98528.13
2019-03-04T05:50:03.967Z,98530.00
2019-03-04T05:52:38.803Z,98532.08
2019-03-04T05:55:15.293Z,98510.97
2019-03-04T05:57:50.175Z,98510.63
2019-03-04T06:00:26.439Z,98514.13
2019-03-04T06:03:02.449Z,98501.13
2019-03-04T06:05:40.835Z,98479.00
2019-03-04T06:08:15.651Z,98469.17
2019-03-04T06:10:51.449Z,98459.57
2019-03-04T06:13:26.373Z,98463.37
2019-03-04T06:16:02.101Z,98467.01
2019-03-04T06:18:37.000Z,98454.31
2019-03-04T06:21:11.939Z,98444.56
2019-03-04T06:23:49.019Z,98446.88
2019-03-04T06:26:24.831Z,98430.03
2019-03-04T06:28:59.929Z,98441.47
2019-03-04T06:31:34.867Z,98408.11
2019-03-04T06:34:09.641Z,98389.41
2019-03-04T06:36:44.391Z,98382.78
2019-03-04T06:39:22.041Z,98385.63
2019-03-04T06:41:57.077Z,98385.87
2019-03-04T06:44:31.983Z,98374.45
2019-03-04T06:47:06.905Z,98370.61
2019-03-04T06:49:41.810Z,98373.21
2019-03-04T06:52:16.825Z,98364.99
2019-03-04T06:55:43.289Z,98368.80
2019-03-04T06:58:18.168Z,98363.97
2019-03-04T07:01:08.006Z,98357.86
2019-03-04T07:03:49.047Z,98343.80
2019-03-04T07:06:23.963Z,98338.13
2019-03-04T07:09:15.010Z,98316.77
2019-03-04T07:11:52.343Z,98315.42
2019-03-04T07:14:27.423Z,98308.11
2019-03-04T07:17:02.343Z,98314.14
2019-03-04T07:19:39.813Z,98324.36
2019-03-04T07:22:14.731Z,98514.42
2019-03-04T07:24:49.662Z,98513.07
2019-03-04T07:27:24.543Z,98468.73
2019-03-04T07:29:59.449Z,98472.02
2019-03-04T07:32:34.301Z,98489.61
2019-03-04T07:35:10.106Z,98505.03
2019-03-04T07:37:44.996Z,98496.50
2019-03-04T07:40:19.832Z,98511.22
2019-03-04T07:42:54.764Z,98518.06
2019-03-04T07:45:30.729Z,98504.42
2019-03-04T07:48:05.552Z,98497.59
2019-03-04T07:50:40.415Z,98505.00
2019-03-04T07:53:16.283Z,98517.42
2019-03-04T07:55:51.160Z,98498.62
2019-03-04T07:58:26.129Z,98495.52
2019-03-04T08:01:01.109Z,98505.69
2019-03-04T08:03:37.593Z,98498.59
2019-03-04T08:06:15.586Z,98503.48
2019-03-04T08:09:47.003Z,98513.67
2019-03-04T08:13:14.421Z,98501.10
2019-03-04T08:15:53.300Z,98525.38
2019-03-04T08:18:28.418Z,98495.98
2019-03-04T08:21:03.632Z,98483.94
2019-03-04T08:23:38.743Z,98487.65
2019-03-04T08:26:14.472Z,98494.44
2019-03-04T08:28:49.383Z,98474.57
2019-03-04T08:31:24.231Z,98454.93
2019-03-04T08:33:59.121Z,98454.58
2019-03-04T08:36:34.138Z,98444.28
2019-03-04T08:39:12.634Z,98456.99
2019-03-04T08:41:47.537Z,98455.59
2019-03-04T08:44:22.498Z,98461.00
2019-03-04T08:46:57.335Z,98454.40
2019-03-04T08:49:32.677Z,98481.27
2019-03-04T08:52:09.377Z,98470.14
2019-03-04T08:54:44.361Z,98465.88
2019-03-04T08:57:19.377Z,98472.11
2019-03-04T08:59:55.229Z,98459.83
2019-03-04T09:02:30.415Z,98459.92
2019-03-04T09:05:08.762Z,98441.45
2019-03-04T09:07:43.874Z,98434.76
2019-03-04T09:10:30.643Z,98442.98
2019-03-04T09:13:07.557Z,98436.22
2019-03-04T09:15:42.525Z,98443.46
2019-03-04T09:18:17.367Z,98436.66
2019-03-04T09:20:52.421Z,98442.75
2019-03-04T09:23:28.182Z,98439.36
2019-03-04T09:26:09.146Z,98436.50
2019-03-04T09:28:44.098Z,98426.42
2019-03-04T09:31:20.718Z,98427.06
2019-03-04T09:33:56.351Z,98422.78
2019-03-04T09:36:31.344Z,98438.58
2019-03-04T09:39:10.038Z,98440.97
2019-03-04T09:41:45.872Z,98431.33
2019-03-04T09:44:20.860Z,98425.84
2019-03-04T09:46:55.813Z,98427.41
2019-03-04T09:49:32.304Z,98426.23
2019-03-04T09:52:09.896Z,98436.61
2019-03-04T09:54:44.832Z,98416.21
2019-03-04T09:57:19.749Z,98400.70
2019-03-04T09:59:55.402Z,98400.60
2019-03-04T10:02:43.973Z,98403.09
2019-03-04T10:06:15.172Z,98404.93
2019-03-04T10:09:12.504Z,98386.30
2019-03-04T10:12:21.728Z,98391.03
2019-03-04T10:15:39.296Z,98396.16
2019-03-04T10:18:52.447Z,98450.30
2019-03-04T10:21:57.740Z,98433.36
2019-03-04T10:25:01.191Z,98462.14
2019-03-04T10:28:46.472Z,98475.52
2019-03-04T10:31:51.268Z,98490.92
2019-03-04T10:34:55.145Z,98471.53
2019-03-04T10:38:33.548Z,98511.06
2019-03-04T10:41:49.299Z,98532.00
2019-03-04T10:44:59.410Z,98485.95
2019-03-04T10:47:34.308Z,98529.72
2019-03-04T10:50:10.608Z,98537.70
2019-03-04T10:52:45.636Z,98566.31
2019-03-04T10:55:22.176Z,98555.09
2019-03-04T10:57:56.950Z,98567.15
2019-03-04T11:00:32.607Z,98587.76
2019-03-04T11:03:07.962Z,98602.30
2019-03-04T11:05:44.134Z,98596.64
2019-03-04T11:08:19.111Z,98586.13
2019-03-04T11:10:55.232Z,98598.31
2019-03-04T11:13:31.853Z,98616.04
2019-03-04T11:16:07.062Z,98609.41
2019-03-04T11:18:42.020Z,98617.73
2019-03-04T11:21:16.989Z,98626.41
2019-03-04T11:23:52.378Z,98635.25
2019-03-04T11:26:27.674Z,98629.77
2019-03-04T11:29:04.713Z,98629.99
2019-03-04T11:31:39.848Z,98625.63
2019-03-04T11:34:15.769Z,98624.06
2019-03-04T11:36:51.521Z,98621.38
2019-03-04T11:39:47.412Z,98622.08
2019-03-04T11:42:22.366Z,98622.34
2019-03-04T11:44:57.335Z,98616.59
2019-03-04T11:47:32.598Z,98619.17
2019-03-04T11:50:11.254Z,98605.69
2019-03-04T11:52:46.418Z,98613.22
2019-03-04T11:55:23.270Z,98602.17
2019-03-04T11:57:58.268Z,98610.34
2019-03-04T12:00:51.502Z,98605.05
2019-03-04T12:03:27.122Z,98606.63
2019-03-04T12:06:02.879Z,98619.12
2019-03-04T12:08:40.962Z,98605.11
2019-03-04T12:11:15.906Z,98615.89
2019-03-04T12:13:51.910Z,98647.22
2019-03-04T12:16:26.924Z,98656.71
2019-03-04T12:19:01.866Z,98660.02
2019-03-04T12:21:37.017Z,98652.67
2019-03-04T12:24:12.018Z,98668.08
2019-03-04T12:26:46.928Z,98659.41
2019-03-04T12:29:22.202Z,98653.78
2019-03-04T12:32:16.094Z,98660.85
2019-03-04T12:34:50.874Z,98651.08
2019-03-04T12:37:25.754Z,98649.19
2019-03-04T12:40:00.994Z,98645.41
2019-03-04T12:42:36.058Z,98650.23
2019-03-04T12:45:14.399Z,98645.41
2019-03-04T12:47:49.364Z,98658.28
2019-03-04T12:50:25.912Z,98670.48
2019-03-04T12:53:01.316Z,98667.06
2019-03-04T12:55:36.127Z,98671.86
2019-03-04T12:58:11.058Z,98671.27
2019-03-04T13:00:46.336Z,98673.23
2019-03-04T13:03:25.596Z,98681.45
2019-03-04T13:06:00.506Z,98688.30
2019-03-04T13:08:36.236Z,98676.06
2019-03-04T13:11:11.098Z,98704.70
2019-03-04T13:13:45.980Z,98688.73
2019-03-04T13:16:22.522Z,98687.64
2019-03-04T13:18:58.285Z,98697.87
2019-03-04T13:21:33.368Z,98705.05
2019-03-04T13:24:08.336Z,98702.45
2019-03-04T13:26:43.258Z,98710.25
2019-03-04T13:29:18.220Z,98718.80
2019-03-04T13:31:53.174Z,98709.07
2019-03-04T13:34:28.022Z,98690.47
2019-03-04T13:37:02.900Z,98725.20
2019-03-04T13:39:37.724Z,98729.23
2019-03-04T13:42:12.980Z,98724.88
2019-03-04T13:44:47.854Z,98740.12
2019-03-04T13:47:22.898Z,98729.07
2019-03-04T13:49:57.755Z,98736.94
2019-03-04T13:52:32.776Z,98728.33
2019-03-04T13:55:07.928Z,98737.78
2019-03-04T13:57:42.856Z,98752.47
2019-03-04T14:00:19.822Z,98738.41
2019-03-04T14:02:54.729Z,98740.16
2019-03-04T14:05:29.574Z,98740.97
2019-03-04T14:08:04.539Z,98755.36
2019-03-04T14:10:39.355Z,98781.55
2019-03-04T14:13:15.134Z,98767.06
2019-03-04T14:15:50.070Z,98782.30
2019-03-04T14:18:24.883Z,98786.70
2019-03-04T14:20:59.762Z,98767.11
2019-03-04T14:23:34.658Z,98796.42
2019-03-04T14:26:09.680Z,98808.72
2019-03-04T14:28:44.744Z,98811.11
2019-03-04T14:31:19.584Z,98808.80
2019-03-04T14:33:54.446Z,98810.91
2019-03-04T14:36:29.299Z,98825.00
2019-03-04T14:39:05.698Z,98837.87
2019-03-04T14:41:42.185Z,98836.86
2019-03-04T14:44:18.138Z,98851.79
2019-03-04T14:46:53.128Z,98866.13
2019-03-04T14:49:28.226Z,98859.56
2019-03-04T14:52:03.393Z,98879.14
2019-03-04T14:54:38.352Z,98880.19
2019-03-04T14:57:13.189Z,98883.06
2019-03-04T14:59:48.126Z,98875.50
2019-03-04T15:02:23.016Z,98893.30
2019-03-04T15:04:59.649Z,98899.34
2019-03-04T15:07:34.574Z,98946.38
2019-03-04T15:10:11.864Z,98915.06
2019-03-04T15:12:49.697Z,98920.26
2019-03-04T15:15:24.587Z,98937.76
2019-03-04T15:18:00.877Z,98930.70
2019-03-04T15:20:36.716Z,98952.89
2019-03-04T15:23:11.569Z,98952.11
2019-03-04T15:25:46.521Z,98961.02
2019-03-04T15:28:22.635Z,98964.61
2019-03-04T15:30:58.816Z,98979.22
2019-03-04T15:33:34.658Z,98984.12
2019-03-04T15:36:09.634Z,98990.88
2019-03-04T15:38:44.497Z,98982.75
2019-03-04T15:41:19.394Z,98995.04
2019-03-04T15:43:55.351Z,98996.66
2019-03-04T15:46:30.275Z,99000.81
2019-03-04T15:50:11.278Z,99015.98
2019-03-04T15:53:56.901Z,99009.98
2019-03-04T15:56:59.873Z,99016.81
2019-03-04T15:59:36.497Z,99017.73
2019-03-04T16:02:14.267Z,99026.11
2019-03-04T16:04:49.287Z,99021.88
2019-03-04T16:07:24.256Z,99024.48
2019-03-04T16:09:59.162Z,99028.38
2019-03-04T16:12:35.844Z,99038.02
2019-03-04T16:15:13.998Z,99037.46
2019-03-04T16:17:49.304Z,99035.57
2019-03-04T16:20:28.254Z,99064.64
2019-03-04T16:23:03.160Z,99063.28
2019-03-04T16:25:38.425Z,99065.15
2019-03-04T16:28:19.687Z,99089.43
2019-03-04T16:31:10.004Z,99062.52
2019-03-04T16:34:08.174Z,99076.58
2019-03-04T16:36:43.469Z,99079.94
2019-03-04T16:39:21.332Z,99099.19
2019-03-04T16:41:56.276Z,99097.33
2019-03-04T16:44:31.261Z,99113.22
2019-03-04T16:47:06.720Z,99094.93
2019-03-04T16:49:41.813Z,99105.64
2019-03-04T16:52:17.917Z,99132.27
2019-03-04T16:54:57.460Z,99131.20
2019-03-04T16:57:32.480Z,99154.70
2019-03-04T17:00:58.327Z,99124.40
2019-03-04T17:03:49.943Z,99142.70
2019-03-04T17:06:34.795Z,99162.31
2019-03-04T17:09:18.879Z,99170.39
2019-03-04T17:11:53.888Z,99160.73
2019-03-04T17:14:29.163Z,99152.91
2019-03-04T17:17:11.210Z,99171.48
2019-03-04T17:19:46.157Z,99174.09
2019-03-04T17:22:21.994Z,99179.33
2019-03-04T17:24:56.932Z,99180.12
2019-03-04T17:27:31.859Z,99202.31
2019-03-04T17:30:09.670Z,99206.19
2019-03-04T17:32:44.888Z,99196.80
2019-03-04T17:35:20.135Z,99216.41
2019-03-04T17:37:55.115Z,99207.77
2019-03-04T17:40:33.084Z,99222.68
2019-03-04T17:43:08.051Z,99220.07
2019-03-04T17:45:42.953Z,99238.09
2019-03-04T17:48:17.944Z,99225.58
2019-03-04T17:51:08.609Z,99247.77
2019-03-04T17:53:45.536Z,99241.77
2019-03-04T17:56:22.119Z,99243.58
2019-03-04T17:58:57.390Z,99257.22
2019-03-04T18:01:32.554Z,99271.31
2019-03-04T18:04:07.443Z,99273.19
2019-03-04T18:06:42.658Z,99277.10
2019-03-04T18:09:19.187Z,99284.67
2019-03-04T18:11:54.160Z,99278.66
2019-03-04T18:14:29.074Z,99312.64
2019-03-04T18:17:20.652Z,99281.01
2019-03-04T18:19:57.015Z,99296.95
2019-03-04T18:22:33.488Z,99299.83
2019-03-04T18:25:20.460Z,99304.52
2019-03-04T18:28:00.107Z,99313.38
2019-03-04T18:31:21.936Z,99320.98
2019-03-04T18:35:03.282Z,99310.25
2019-03-04T18:38:12.413Z,99333.25
2019-03-04T18:41:28.049Z,99344.53
2019-03-04T18:48:57.309Z,99328.30
2019-03-04T18:51:37.349Z,99359.42
2019-03-04T18:54:20.172Z,99345.03
2019-03-04T18:56:56.663Z,99364.36
2019-03-04T18:59:33.559Z,99356.52
2019-03-04T19:02:09.163Z,99361.48
2019-03-04T19:04:44.127Z,99358.63
2019-03-04T19:07:19.022Z,99380.59
2019-03-04T19:09:53.984Z,99379.00
2019-03-04T19:12:28.965Z,99392.06
2019-03-04T19:15:03.816Z,99391.55
2019-03-04T19:17:38.744Z,99388.66
2019-03-04T19:20:15.624Z,99407.47
2019-03-04T19:22:50.581Z,99401.22
2019-03-04T19:25:25.592Z,99400.95
2019-03-04T19:28:00.511Z,99404.86
2019-03-04T19:30:36.388Z,99414.25
2019-03-04T19:33:11.339Z,99415.05
2019-03-04T19:35:46.256Z,99416.09
2019-03-04T19:38:21.193Z,99432.29
2019-03-04T19:40:56.066Z,99418.45
2019-03-04T19:43:33.076Z,99419.23
2019-03-04T19:46:07.616Z,99412.44
2019-03-04T19:48:42.504Z,99428.92
2019-03-04T19:51:20.458Z,99423.95
2019-03-04T19:55:12.803Z,99434.90
2019-03-04T19:57:51.732Z,99426.55
2019-03-04T20:00:28.132Z,99440.89
2019-03-04T20:03:03.236Z,99451.07
2019-03-04T20:05:38.207Z,99448.17
2019-03-04T20:08:13.287Z,99448.13
2019-03-04T20:10:48.252Z,99446.55
2019-03-04T20:13:23.172Z,99452.28
2019-03-04T20:15:58.157Z,99451.50
2019-03-04T20:18:33.998Z,99459.84
2019-03-04T20:21:08.916Z,99454.37
2019-03-04T20:23:46.513Z,99461.14
2019-03-04T20:26:21.492Z,99461.14
2019-03-04T20:28:56.396Z,99455.95
2019-03-04T20:31:31.269Z,99456.70
2019-03-04T20:34:07.333Z,99470.53
2019-03-04T20:36:42.387Z,99456.69
2019-03-04T20:39:17.990Z,99461.35
2019-03-04T20:41:52.975Z,99468.91
2019-03-04T20:44:27.806Z,99475.98
2019-03-04T20:47:02.704Z,99468.91
2019-03-04T20:49:37.624Z,99474.38
2019-03-04T20:52:12.530Z,99477.73
2019-03-04T20:54:47.489Z,99492.85
2019-03-04T20:57:22.383Z,99480.06
2019-03-04T20:59:57.331Z,99484.81
2019-03-04T21:02:33.019Z,99483.75
2019-03-04T21:05:10.125Z,99490.52
2019-03-04T21:07:46.167Z,99498.08
2019-03-04T21:10:21.204Z,99494.94
2019-03-04T21:12:59.111Z,99506.39
2019-03-04T21:15:34.159Z,99506.64
2019-03-04T21:18:14.405Z,99507.95
2019-03-04T21:20:49.460Z,99522.30
2019-03-04T21:23:24.603Z,99521.77
2019-03-04T21:26:19.386Z,99526.48
2019-03-04T21:30:06.099Z,99529.10
2019-03-04T21:33:14.916Z,99529.34
2019-03-04T21:36:28.623Z,99543.91
2019-03-04T21:39:04.355Z,99539.70
2019-03-04T21:42:15.481Z,99539.70
2019-03-04T21:45:47.677Z,99551.48
2019-03-04T21:48:50.615Z,99551.52
2019-03-04T21:52:19.552Z,99550.71
2019-03-04T21:54:45.446Z,99555.60
2019-03-04T21:57:41.642Z,99557.67
2019-03-04T22:00:23.036Z,99560.33
2019-03-04T22:03:18.621Z,99559.36
2019-03-04T22:05:53.755Z,99561.22
2019-03-04T22:08:28.928Z,99560.48
2019-03-04T22:11:05.130Z,99571.48
2019-03-04T22:13:40.522Z,99579.88
2019-03-04T22:16:15.448Z,99579.31
2019-03-04T22:18:50.387Z,99571.20
2019-03-04T22:21:25.377Z,99572.79
2019-03-04T22:24:41.341Z,99563.16
2019-03-04T22:27:36.221Z,99572.83
2019-03-04T22:30:15.626Z,99575.37
2019-03-04T22:32:50.520Z,99576.42
2019-03-04T22:35:25.468Z,99580.63
2019-03-04T22:38:00.366Z,99582.45
2019-03-04T22:40:36.373Z,99574.41
2019-03-04T22:43:11.386Z,99571.77
2019-03-04T22:45:50.014Z,99577.02
2019-03-04T22:48:24.870Z,99575.22
2019-03-04T22:50:59.843Z,99568.38
2019-03-04T22:53:34.846Z,99567.36
2019-03-04T22:56:09.776Z,99578.05
2019-03-04T22:58:44.660Z,99578.82
2019-03-04T23:01:53.905Z,99573.08
2019-03-04T23:05:08.271Z,99574.34
2019-03-04T23:07:50.006Z,99564.96
2019-03-04T23:10:49.333Z,99562.39
2019-03-04T23:14:02.705Z,99572.51
2019-03-04T23:16:37.971Z,99573.61
2019-03-04T23:19:12.804Z,99567.82
2019-03-04T23:21:47.700Z,99567.29
2019-03-04T23:24:22.588Z,99569.09
2019-03-04T23:26:57.834Z,99572.08
2019-03-04T23:29:32.832Z,99561.98
2019-03-04T23:32:10.738Z,99572.43
2019-03-04T23:34:45.566Z,99568.04
2019-03-04T23:37:20.429Z,99585.84
2019-03-04T23:39:55.156Z,99577.76
2019-03-04T23:42:29.934Z,99571.23
2019-03-04T23:45:04.816Z,99565.20
2019-03-04T23:47:39.624Z,99575.63
2019-03-04T23:50:21.427Z,99576.92
2019-03-04T23:52:58.418Z,99574.09
2019-03-04T23:55:33.381Z,99585.32
2019-03-04T23:58:08.174Z,99586.51
